sensor_id;sensor_type;location;lat;lon;timestamp;P1;durP1;ratioP1;P2;durP2;ratioP2
2161;SDS011;1087;50.226;8.682;2023-01-13T00:00:42;3.37;;;1.43;;
2161;SDS011;1087;50.226;8.682;2023-01-13T00:03:07;2.00;;;1.60;;
2161;SDS011;1087;50.226;8.682;2023-01-13T00:05:33;2.20;;;1.60;;
2161;SDS011;1087;50.226;8.682;2023-01-13T00:07:58;3.00;;;1.50;;
2161;SDS011;1087;50.226;8.682;2023-01-13T00:10:24;2.83;;;1.70;;
2161;SDS011;1087;50.226;8.682;2023-01-13T00:12:49;3.70;;;1.50;;
2161;SDS011;1087;50.226;8.682;2023-01-13T00:15:17;2.03;;;1.40;;
2161;SDS011;1087;50.226;8.682;2023-01-13T00:17:42;1.90;;;1.40;;
2161;SDS011;1087;50.226;8.682;2023-01-13T00:20:08;2.40;;;1.27;;
2161;SDS011;1087;50.226;8.682;2023-01-13T00:22:34;1.43;;;1.33;;
2161;SDS011;1087;50.226;8.682;2023-01-13T00:25:00;1.80;;;1.70;;
2161;SDS011;1087;50.226;8.682;2023-01-13T00:27:28;1.40;;;1.30;;
2161;SDS011;1087;50.226;8.682;2023-01-13T00:29:53;1.53;;;1.20;;
2161;SDS011;1087;50.226;8.682;2023-01-13T00:32:19;2.50;;;1.60;;
2161;SDS011;1087;50.226;8.682;2023-01-13T00:34:45;3.17;;;1.67;;
2161;SDS011;1087;50.226;8.682;2023-01-13T00:37:10;3.43;;;1.40;;
2161;SDS011;1087;50.226;8.682;2023-01-13T00:39:38;3.17;;;1.53;;
2161;SDS011;1087;50.226;8.682;2023-01-13T00:42:04;5.10;;;1.67;;
2161;SDS011;1087;50.226;8.682;2023-01-13T00:44:49;1.30;;;1.10;;
2161;SDS011;1087;50.226;8.682;2023-01-13T00:47:15;2.57;;;1.20;;
2161;SDS011;1087;50.226;8.682;2023-01-13T00:49:40;2.80;;;1.57;;
2161;SDS011;1087;50.226;8.682;2023-01-13T00:52:06;2.03;;;1.20;;
2161;SDS011;1087;50.226;8.682;2023-01-13T00:54:31;1.80;;;1.40;;
2161;SDS011;1087;50.226;8.682;2023-01-13T00:56:57;1.60;;;1.30;;
2161;SDS011;1087;50.226;8.682;2023-01-13T00:59:23;3.57;;;1.70;;
2161;SDS011;1087;50.226;8.682;2023-01-13T01:01:48;2.83;;;1.63;;
2161;SDS011;1087;50.226;8.682;2023-01-13T01:04:14;2.67;;;1.30;;
2161;SDS011;1087;50.226;8.682;2023-01-13T01:06:40;1.40;;;1.30;;
2161;SDS011;1087;50.226;8.682;2023-01-13T01:09:05;3.73;;;1.83;;
2161;SDS011;1087;50.226;8.682;2023-01-13T01:11:31;1.70;;;1.57;;
2161;SDS011;1087;50.226;8.682;2023-01-13T01:13:59;1.80;;;1.30;;
2161;SDS011;1087;50.226;8.682;2023-01-13T01:16:27;1.83;;;1.30;;
2161;SDS011;1087;50.226;8.682;2023-01-13T01:18:54;2.30;;;1.40;;
2161;SDS011;1087;50.226;8.682;2023-01-13T01:21:21;2.17;;;1.30;;
2161;SDS011;1087;50.226;8.682;2023-01-13T01:23:48;1.63;;;1.50;;
2161;SDS011;1087;50.226;8.682;2023-01-13T01:26:15;2.33;;;1.50;;
2161;SDS011;1087;50.226;8.682;2023-01-13T01:28:46;2.40;;;1.47;;
2161;SDS011;1087;50.226;8.682;2023-01-13T01:31:16;2.70;;;1.63;;
2161;SDS011;1087;50.226;8.682;2023-01-13T01:33:43;4.00;;;1.50;;
2161;SDS011;1087;50.226;8.682;2023-01-13T01:36:13;1.67;;;1.53;;
2161;SDS011;1087;50.226;8.682;2023-01-13T01:38:39;1.60;;;1.33;;
2161;SDS011;1087;50.226;8.682;2023-01-13T01:41:05;1.23;;;1.10;;
2161;SDS011;1087;50.226;8.682;2023-01-13T01:43:51;2.10;;;1.40;;
2161;SDS011;1087;50.226;8.682;2023-01-13T01:49:02;1.90;;;1.50;;
2161;SDS011;1087;50.226;8.682;2023-01-13T01:51:34;1.87;;;1.10;;
2161;SDS011;1087;50.226;8.682;2023-01-13T01:54:06;1.50;;;1.20;;
2161;SDS011;1087;50.226;8.682;2023-01-13T01:56:35;1.40;;;1.00;;
2161;SDS011;1087;50.226;8.682;2023-01-13T01:59:02;1.50;;;1.20;;
2161;SDS011;1087;50.226;8.682;2023-01-13T02:01:28;2.73;;;1.27;;
2161;SDS011;1087;50.226;8.682;2023-01-13T02:03:58;2.00;;;1.40;;
2161;SDS011;1087;50.226;8.682;2023-01-13T02:06:29;1.20;;;1.00;;
2161;SDS011;1087;50.226;8.682;2023-01-13T02:08:54;1.33;;;1.10;;
2161;SDS011;1087;50.226;8.682;2023-01-13T02:11:28;2.70;;;1.03;;
2161;SDS011;1087;50.226;8.682;2023-01-13T02:14:18;1.60;;;1.33;;
2161;SDS011;1087;50.226;8.682;2023-01-13T02:16:51;1.37;;;1.03;;
2161;SDS011;1087;50.226;8.682;2023-01-13T02:30:12;2.97;;;1.27;;
2161;SDS011;1087;50.226;8.682;2023-01-13T02:33:36;3.33;;;1.43;;
2161;SDS011;1087;50.226;8.682;2023-01-13T02:36:26;1.93;;;1.23;;
2161;SDS011;1087;50.226;8.682;2023-01-13T02:42:49;2.20;;;1.37;;
2161;SDS011;1087;50.226;8.682;2023-01-13T02:45:20;4.10;;;1.40;;
2161;SDS011;1087;50.226;8.682;2023-01-13T02:47:56;3.20;;;1.50;;
2161;SDS011;1087;50.226;8.682;2023-01-13T02:50:28;1.30;;;1.20;;
2161;SDS011;1087;50.226;8.682;2023-01-13T02:53:19;1.63;;;1.47;;
2161;SDS011;1087;50.226;8.682;2023-01-13T02:55:58;1.20;;;1.10;;
2161;SDS011;1087;50.226;8.682;2023-01-13T02:58:27;2.13;;;1.17;;
2161;SDS011;1087;50.226;8.682;2023-01-13T03:00:55;1.83;;;1.43;;
2161;SDS011;1087;50.226;8.682;2023-01-13T03:03:21;1.70;;;1.43;;
2161;SDS011;1087;50.226;8.682;2023-01-13T03:05:47;3.80;;;1.60;;
2161;SDS011;1087;50.226;8.682;2023-01-13T03:08:21;1.33;;;1.20;;
2161;SDS011;1087;50.226;8.682;2023-01-13T03:11:21;1.20;;;1.00;;
2161;SDS011;1087;50.226;8.682;2023-01-13T03:14:05;1.23;;;1.13;;
2161;SDS011;1087;50.226;8.682;2023-01-13T03:16:55;2.53;;;1.70;;
2161;SDS011;1087;50.226;8.682;2023-01-13T03:19:50;1.67;;;0.93;;
2161;SDS011;1087;50.226;8.682;2023-01-13T03:22:27;1.50;;;1.20;;
2161;SDS011;1087;50.226;8.682;2023-01-13T03:25:00;1.80;;;0.90;;
2161;SDS011;1087;50.226;8.682;2023-01-13T03:30:32;1.50;;;1.13;;
2161;SDS011;1087;50.226;8.682;2023-01-13T03:33:05;1.77;;;1.20;;
2161;SDS011;1087;50.226;8.682;2023-01-13T03:35:45;1.57;;;1.03;;
2161;SDS011;1087;50.226;8.682;2023-01-13T03:38:18;1.63;;;0.93;;
2161;SDS011;1087;50.226;8.682;2023-01-13T03:40:53;1.37;;;1.00;;
2161;SDS011;1087;50.226;8.682;2023-01-13T03:43:23;1.70;;;0.90;;
2161;SDS011;1087;50.226;8.682;2023-01-13T03:46:14;1.07;;;0.70;;
2161;SDS011;1087;50.226;8.682;2023-01-13T03:48:45;1.43;;;1.30;;
2161;SDS011;1087;50.226;8.682;2023-01-13T03:51:19;1.20;;;1.10;;
2161;SDS011;1087;50.226;8.682;2023-01-13T03:53:50;1.27;;;1.00;;
2161;SDS011;1087;50.226;8.682;2023-01-13T03:56:40;1.27;;;0.97;;
2161;SDS011;1087;50.226;8.682;2023-01-13T03:59:10;1.13;;;0.80;;
2161;SDS011;1087;50.226;8.682;2023-01-13T04:01:41;1.47;;;1.23;;
2161;SDS011;1087;50.226;8.682;2023-01-13T04:04:51;1.20;;;1.10;;
2161;SDS011;1087;50.226;8.682;2023-01-13T04:07:17;1.10;;;1.00;;
2161;SDS011;1087;50.226;8.682;2023-01-13T04:09:56;1.23;;;0.83;;
2161;SDS011;1087;50.226;8.682;2023-01-13T04:12:29;1.10;;;1.00;;
2161;SDS011;1087;50.226;8.682;2023-01-13T04:15:16;1.43;;;1.00;;
2161;SDS011;1087;50.226;8.682;2023-01-13T04:17:45;2.40;;;1.13;;
2161;SDS011;1087;50.226;8.682;2023-01-13T04:20:10;1.80;;;1.20;;
2161;SDS011;1087;50.226;8.682;2023-01-13T04:22:36;1.03;;;0.93;;
2161;SDS011;1087;50.226;8.682;2023-01-13T04:25:02;1.40;;;1.10;;
2161;SDS011;1087;50.226;8.682;2023-01-13T04:27:27;1.00;;;0.80;;
2161;SDS011;1087;50.226;8.682;2023-01-13T04:29:53;1.30;;;1.00;;
2161;SDS011;1087;50.226;8.682;2023-01-13T04:32:19;1.73;;;0.77;;
2161;SDS011;1087;50.226;8.682;2023-01-13T04:34:44;1.40;;;1.00;;
2161;SDS011;1087;50.226;8.682;2023-01-13T04:37:10;1.10;;;0.90;;
2161;SDS011;1087;50.226;8.682;2023-01-13T04:39:35;1.60;;;1.00;;
2161;SDS011;1087;50.226;8.682;2023-01-13T04:42:01;0.97;;;0.97;;
2161;SDS011;1087;50.226;8.682;2023-01-13T04:44:27;1.20;;;1.00;;
2161;SDS011;1087;50.226;8.682;2023-01-13T04:46:56;1.30;;;0.90;;
2161;SDS011;1087;50.226;8.682;2023-01-13T04:49:22;0.80;;;0.80;;
2161;SDS011;1087;50.226;8.682;2023-01-13T04:51:48;1.00;;;0.90;;
2161;SDS011;1087;50.226;8.682;2023-01-13T04:54:13;1.80;;;1.07;;
2161;SDS011;1087;50.226;8.682;2023-01-13T04:56:40;1.47;;;1.37;;
2161;SDS011;1087;50.226;8.682;2023-01-13T04:59:05;1.67;;;1.40;;
2161;SDS011;1087;50.226;8.682;2023-01-13T05:01:31;1.17;;;1.07;;
2161;SDS011;1087;50.226;8.682;2023-01-13T05:03:57;1.87;;;1.20;;
2161;SDS011;1087;50.226;8.682;2023-01-13T05:06:22;1.00;;;0.90;;
2161;SDS011;1087;50.226;8.682;2023-01-13T05:08:47;1.30;;;1.10;;
2161;SDS011;1087;50.226;8.682;2023-01-13T05:11:14;1.73;;;1.17;;
2161;SDS011;1087;50.226;8.682;2023-01-13T05:13:58;1.63;;;1.20;;
2161;SDS011;1087;50.226;8.682;2023-01-13T05:16:43;1.30;;;1.20;;
2161;SDS011;1087;50.226;8.682;2023-01-13T05:19:26;1.33;;;1.00;;
2161;SDS011;1087;50.226;8.682;2023-01-13T05:21:52;1.00;;;0.97;;
2161;SDS011;1087;50.226;8.682;2023-01-13T05:24:36;1.77;;;0.93;;
2161;SDS011;1087;50.226;8.682;2023-01-13T05:27:21;0.93;;;0.93;;
2161;SDS011;1087;50.226;8.682;2023-01-13T05:29:46;1.00;;;1.00;;
2161;SDS011;1087;50.226;8.682;2023-01-13T05:32:12;1.17;;;0.70;;
2161;SDS011;1087;50.226;8.682;2023-01-13T05:34:37;0.70;;;0.70;;
2161;SDS011;1087;50.226;8.682;2023-01-13T05:37:02;0.73;;;0.70;;
2161;SDS011;1087;50.226;8.682;2023-01-13T05:39:31;1.53;;;0.60;;
2161;SDS011;1087;50.226;8.682;2023-01-13T05:42:16;0.80;;;0.60;;
2161;SDS011;1087;50.226;8.682;2023-01-13T05:45:01;0.70;;;0.60;;
2161;SDS011;1087;50.226;8.682;2023-01-13T05:47:26;0.80;;;0.63;;
2161;SDS011;1087;50.226;8.682;2023-01-13T05:49:52;1.27;;;0.70;;
2161;SDS011;1087;50.226;8.682;2023-01-13T05:52:17;2.30;;;1.10;;
2161;SDS011;1087;50.226;8.682;2023-01-13T05:54:43;0.70;;;0.60;;
2161;SDS011;1087;50.226;8.682;2023-01-13T05:57:08;1.10;;;0.60;;
2161;SDS011;1087;50.226;8.682;2023-01-13T05:59:34;1.87;;;0.80;;
2161;SDS011;1087;50.226;8.682;2023-01-13T06:01:59;1.50;;;0.80;;
2161;SDS011;1087;50.226;8.682;2023-01-13T06:04:25;0.80;;;0.70;;
2161;SDS011;1087;50.226;8.682;2023-01-13T06:06:50;1.70;;;0.97;;
2161;SDS011;1087;50.226;8.682;2023-01-13T06:09:16;2.40;;;0.80;;
2161;SDS011;1087;50.226;8.682;2023-01-13T06:11:41;2.20;;;1.23;;
2161;SDS011;1087;50.226;8.682;2023-01-13T06:14:07;2.33;;;0.70;;
2161;SDS011;1087;50.226;8.682;2023-01-13T06:16:33;1.00;;;0.63;;
2161;SDS011;1087;50.226;8.682;2023-01-13T06:18:58;3.10;;;1.00;;
2161;SDS011;1087;50.226;8.682;2023-01-13T06:21:24;1.37;;;0.80;;
2161;SDS011;1087;50.226;8.682;2023-01-13T06:23:49;2.87;;;1.20;;
2161;SDS011;1087;50.226;8.682;2023-01-13T06:26:16;1.50;;;0.90;;
2161;SDS011;1087;50.226;8.682;2023-01-13T06:28:44;2.40;;;1.30;;
2161;SDS011;1087;50.226;8.682;2023-01-13T06:31:09;1.30;;;1.20;;
2161;SDS011;1087;50.226;8.682;2023-01-13T06:33:36;2.80;;;1.20;;
2161;SDS011;1087;50.226;8.682;2023-01-13T06:36:16;1.57;;;1.00;;
2161;SDS011;1087;50.226;8.682;2023-01-13T06:38:46;2.00;;;1.30;;
2161;SDS011;1087;50.226;8.682;2023-01-13T06:41:16;1.40;;;1.27;;
2161;SDS011;1087;50.226;8.682;2023-01-13T06:44:02;2.70;;;1.50;;
2161;SDS011;1087;50.226;8.682;2023-01-13T06:46:28;1.07;;;0.90;;
2161;SDS011;1087;50.226;8.682;2023-01-13T06:48:53;1.10;;;0.70;;
2161;SDS011;1087;50.226;8.682;2023-01-13T06:51:19;1.70;;;0.93;;
2161;SDS011;1087;50.226;8.682;2023-01-13T06:53:44;1.20;;;0.83;;
2161;SDS011;1087;50.226;8.682;2023-01-13T06:56:10;1.53;;;1.10;;
2161;SDS011;1087;50.226;8.682;2023-01-13T06:58:35;3.33;;;0.97;;
2161;SDS011;1087;50.226;8.682;2023-01-13T07:01:01;1.50;;;0.97;;
2161;SDS011;1087;50.226;8.682;2023-01-13T07:03:26;1.47;;;0.90;;
2161;SDS011;1087;50.226;8.682;2023-01-13T07:05:53;0.93;;;0.80;;
2161;SDS011;1087;50.226;8.682;2023-01-13T07:08:20;3.37;;;1.03;;
2161;SDS011;1087;50.226;8.682;2023-01-13T07:10:47;2.80;;;0.90;;
2161;SDS011;1087;50.226;8.682;2023-01-13T07:13:12;2.17;;;0.90;;
2161;SDS011;1087;50.226;8.682;2023-01-13T07:15:58;2.10;;;0.90;;
2161;SDS011;1087;50.226;8.682;2023-01-13T07:18:25;1.97;;;1.20;;
2161;SDS011;1087;50.226;8.682;2023-01-13T07:20:53;1.43;;;0.87;;
2161;SDS011;1087;50.226;8.682;2023-01-13T07:23:19;1.30;;;1.00;;
2161;SDS011;1087;50.226;8.682;2023-01-13T07:25:45;2.90;;;1.17;;
2161;SDS011;1087;50.226;8.682;2023-01-13T07:28:10;2.80;;;1.10;;
2161;SDS011;1087;50.226;8.682;2023-01-13T07:30:37;2.50;;;1.33;;
2161;SDS011;1087;50.226;8.682;2023-01-13T07:33:03;1.20;;;1.10;;
2161;SDS011;1087;50.226;8.682;2023-01-13T07:35:28;4.37;;;1.20;;
2161;SDS011;1087;50.226;8.682;2023-01-13T07:37:54;1.30;;;1.13;;
2161;SDS011;1087;50.226;8.682;2023-01-13T07:40:19;2.50;;;1.37;;
2161;SDS011;1087;50.226;8.682;2023-01-13T07:42:45;1.10;;;0.73;;
2161;SDS011;1087;50.226;8.682;2023-01-13T07:45:29;2.97;;;0.90;;
2161;SDS011;1087;50.226;8.682;2023-01-13T07:47:54;1.50;;;0.87;;
2161;SDS011;1087;50.226;8.682;2023-01-13T07:50:20;1.80;;;0.90;;
2161;SDS011;1087;50.226;8.682;2023-01-13T07:52:47;1.80;;;0.83;;
2161;SDS011;1087;50.226;8.682;2023-01-13T07:55:13;2.10;;;1.00;;
2161;SDS011;1087;50.226;8.682;2023-01-13T07:57:39;3.40;;;1.00;;
2161;SDS011;1087;50.226;8.682;2023-01-13T08:00:05;3.27;;;1.40;;
2161;SDS011;1087;50.226;8.682;2023-01-13T08:02:31;1.60;;;1.40;;
2161;SDS011;1087;50.226;8.682;2023-01-13T08:04:56;3.07;;;1.33;;
2161;SDS011;1087;50.226;8.682;2023-01-13T08:07:22;2.67;;;1.30;;
2161;SDS011;1087;50.226;8.682;2023-01-13T08:09:47;2.90;;;1.60;;
2161;SDS011;1087;50.226;8.682;2023-01-13T08:12:14;1.50;;;1.00;;
2161;SDS011;1087;50.226;8.682;2023-01-13T08:14:58;1.77;;;1.67;;
2161;SDS011;1087;50.226;8.682;2023-01-13T08:17:23;2.33;;;1.97;;
2161;SDS011;1087;50.226;8.682;2023-01-13T08:19:49;2.83;;;1.20;;
2161;SDS011;1087;50.226;8.682;2023-01-13T08:22:14;2.60;;;1.37;;
2161;SDS011;1087;50.226;8.682;2023-01-13T08:24:40;1.97;;;1.23;;
2161;SDS011;1087;50.226;8.682;2023-01-13T08:27:05;2.20;;;1.13;;
2161;SDS011;1087;50.226;8.682;2023-01-13T08:29:31;3.73;;;1.10;;
2161;SDS011;1087;50.226;8.682;2023-01-13T08:31:56;2.10;;;1.20;;
2161;SDS011;1087;50.226;8.682;2023-01-13T08:34:22;1.43;;;1.00;;
2161;SDS011;1087;50.226;8.682;2023-01-13T08:36:48;2.20;;;1.00;;
2161;SDS011;1087;50.226;8.682;2023-01-13T08:39:14;1.27;;;0.87;;
2161;SDS011;1087;50.226;8.682;2023-01-13T08:41:39;2.30;;;1.00;;
2161;SDS011;1087;50.226;8.682;2023-01-13T08:44:26;1.97;;;1.00;;
2161;SDS011;1087;50.226;8.682;2023-01-13T08:46:53;4.30;;;1.37;;
2161;SDS011;1087;50.226;8.682;2023-01-13T08:49:19;3.07;;;1.40;;
2161;SDS011;1087;50.226;8.682;2023-01-13T08:51:45;1.57;;;1.10;;
2161;SDS011;1087;50.226;8.682;2023-01-13T08:54:11;2.90;;;1.07;;
2161;SDS011;1087;50.226;8.682;2023-01-13T08:56:37;2.97;;;1.00;;
2161;SDS011;1087;50.226;8.682;2023-01-13T08:59:03;2.23;;;1.00;;
2161;SDS011;1087;50.226;8.682;2023-01-13T09:01:28;2.07;;;1.20;;
2161;SDS011;1087;50.226;8.682;2023-01-13T09:03:54;2.43;;;0.90;;
2161;SDS011;1087;50.226;8.682;2023-01-13T09:06:20;1.30;;;1.20;;
2161;SDS011;1087;50.226;8.682;2023-01-13T09:08:45;1.20;;;1.10;;
2161;SDS011;1087;50.226;8.682;2023-01-13T09:11:18;1.57;;;1.20;;
2161;SDS011;1087;50.226;8.682;2023-01-13T09:14:05;3.53;;;1.37;;
2161;SDS011;1087;50.226;8.682;2023-01-13T09:16:30;3.83;;;1.23;;
2161;SDS011;1087;50.226;8.682;2023-01-13T09:18:56;1.67;;;1.20;;
2161;SDS011;1087;50.226;8.682;2023-01-13T09:21:21;2.07;;;1.40;;
2161;SDS011;1087;50.226;8.682;2023-01-13T09:23:47;2.07;;;1.40;;
2161;SDS011;1087;50.226;8.682;2023-01-13T09:26:14;6.10;;;1.10;;
2161;SDS011;1087;50.226;8.682;2023-01-13T09:28:44;1.97;;;0.90;;
2161;SDS011;1087;50.226;8.682;2023-01-13T09:31:09;3.50;;;1.30;;
2161;SDS011;1087;50.226;8.682;2023-01-13T09:33:35;2.83;;;1.50;;
2161;SDS011;1087;50.226;8.682;2023-01-13T09:36:19;2.33;;;1.00;;
2161;SDS011;1087;50.226;8.682;2023-01-13T09:38:44;1.90;;;0.90;;
2161;SDS011;1087;50.226;8.682;2023-01-13T09:41:28;4.30;;;1.13;;
2161;SDS011;1087;50.226;8.682;2023-01-13T09:44:16;1.20;;;0.90;;
2161;SDS011;1087;50.226;8.682;2023-01-13T09:46:48;1.50;;;1.23;;
2161;SDS011;1087;50.226;8.682;2023-01-13T09:49:18;2.43;;;1.00;;
2161;SDS011;1087;50.226;8.682;2023-01-13T09:52:31;1.47;;;1.10;;
2161;SDS011;1087;50.226;8.682;2023-01-13T09:54:40;1.73;;;1.60;;
2161;SDS011;1087;50.226;8.682;2023-01-13T09:57:15;2.83;;;1.20;;
2161;SDS011;1087;50.226;8.682;2023-01-13T09:59:43;2.00;;;1.03;;
2161;SDS011;1087;50.226;8.682;2023-01-13T10:07:46;1.37;;;1.00;;
2161;SDS011;1087;50.226;8.682;2023-01-13T10:13:16;3.80;;;2.43;;
2161;SDS011;1087;50.226;8.682;2023-01-13T10:18:57;2.23;;;1.20;;
2161;SDS011;1087;50.226;8.682;2023-01-13T10:21:53;2.63;;;1.30;;
2161;SDS011;1087;50.226;8.682;2023-01-13T10:27:44;3.73;;;1.53;;
2161;SDS011;1087;50.226;8.682;2023-01-13T10:32:39;4.10;;;1.43;;
2161;SDS011;1087;50.226;8.682;2023-01-13T10:35:10;3.00;;;1.20;;
2161;SDS011;1087;50.226;8.682;2023-01-13T10:37:35;4.93;;;2.23;;
2161;SDS011;1087;50.226;8.682;2023-01-13T10:40:01;5.67;;;1.77;;
2161;SDS011;1087;50.226;8.682;2023-01-13T10:42:28;4.57;;;1.00;;
2161;SDS011;1087;50.226;8.682;2023-01-13T10:47:30;3.47;;;1.30;;
2161;SDS011;1087;50.226;8.682;2023-01-13T10:52:37;4.03;;;1.40;;
2161;SDS011;1087;50.226;8.682;2023-01-13T10:55:26;2.77;;;1.33;;
2161;SDS011;1087;50.226;8.682;2023-01-13T10:57:54;6.00;;;1.67;;
2161;SDS011;1087;50.226;8.682;2023-01-13T11:05:58;5.53;;;1.53;;
2161;SDS011;1087;50.226;8.682;2023-01-13T11:08:25;3.23;;;1.30;;
2161;SDS011;1087;50.226;8.682;2023-01-13T11:10:55;4.57;;;1.70;;
2161;SDS011;1087;50.226;8.682;2023-01-13T11:13:27;4.63;;;2.13;;
2161;SDS011;1087;50.226;8.682;2023-01-13T11:16:04;4.73;;;1.30;;
2161;SDS011;1087;50.226;8.682;2023-01-13T11:21:05;5.63;;;1.70;;
2161;SDS011;1087;50.226;8.682;2023-01-13T11:23:44;4.90;;;1.57;;
2161;SDS011;1087;50.226;8.682;2023-01-13T11:26:18;3.13;;;1.40;;
2161;SDS011;1087;50.226;8.682;2023-01-13T11:29:00;3.63;;;1.00;;
2161;SDS011;1087;50.226;8.682;2023-01-13T11:31:35;2.23;;;1.00;;
2161;SDS011;1087;50.226;8.682;2023-01-13T11:34:17;2.97;;;1.40;;
2161;SDS011;1087;50.226;8.682;2023-01-13T11:37:00;3.13;;;1.27;;
2161;SDS011;1087;50.226;8.682;2023-01-13T11:42:15;3.30;;;1.40;;
2161;SDS011;1087;50.226;8.682;2023-01-13T11:44:47;3.93;;;1.60;;
2161;SDS011;1087;50.226;8.682;2023-01-13T11:47:26;3.90;;;1.43;;
2161;SDS011;1087;50.226;8.682;2023-01-13T11:49:52;2.30;;;1.50;;
2161;SDS011;1087;50.226;8.682;2023-01-13T11:55:00;5.87;;;1.40;;
2161;SDS011;1087;50.226;8.682;2023-01-13T12:00:20;5.53;;;1.93;;
2161;SDS011;1087;50.226;8.682;2023-01-13T12:08:43;3.40;;;1.70;;
2161;SDS011;1087;50.226;8.682;2023-01-13T12:11:32;3.87;;;1.60;;
2161;SDS011;1087;50.226;8.682;2023-01-13T12:14:30;4.80;;;1.90;;
2161;SDS011;1087;50.226;8.682;2023-01-13T12:17:03;3.63;;;1.40;;
2161;SDS011;1087;50.226;8.682;2023-01-13T12:19:39;5.13;;;1.73;;
2161;SDS011;1087;50.226;8.682;2023-01-13T12:22:19;3.57;;;1.70;;
2161;SDS011;1087;50.226;8.682;2023-01-13T12:24:59;2.30;;;1.50;;
2161;SDS011;1087;50.226;8.682;2023-01-13T12:27:45;5.03;;;1.50;;
2161;SDS011;1087;50.226;8.682;2023-01-13T12:33:05;4.87;;;1.70;;
2161;SDS011;1087;50.226;8.682;2023-01-13T12:35:46;5.77;;;1.47;;
2161;SDS011;1087;50.226;8.682;2023-01-13T12:41:05;4.13;;;1.80;;
2161;SDS011;1087;50.226;8.682;2023-01-13T12:43:54;3.50;;;1.40;;
2161;SDS011;1087;50.226;8.682;2023-01-13T12:46:43;3.73;;;2.03;;
2161;SDS011;1087;50.226;8.682;2023-01-13T12:49:24;6.40;;;1.80;;
2161;SDS011;1087;50.226;8.682;2023-01-13T12:56:55;3.90;;;1.53;;
2161;SDS011;1087;50.226;8.682;2023-01-13T13:01:48;6.77;;;1.80;;
2161;SDS011;1087;50.226;8.682;2023-01-13T13:04:44;5.37;;;2.17;;
2161;SDS011;1087;50.226;8.682;2023-01-13T13:07:12;7.70;;;1.97;;
2161;SDS011;1087;50.226;8.682;2023-01-13T13:09:52;2.43;;;1.80;;
2161;SDS011;1087;50.226;8.682;2023-01-13T13:15:28;2.40;;;2.00;;
2161;SDS011;1087;50.226;8.682;2023-01-13T13:23:37;6.00;;;1.70;;
2161;SDS011;1087;50.226;8.682;2023-01-13T13:26:23;4.80;;;1.70;;
2161;SDS011;1087;50.226;8.682;2023-01-13T13:32:25;10.73;;;2.00;;
2161;SDS011;1087;50.226;8.682;2023-01-13T13:40:41;3.83;;;1.87;;
2161;SDS011;1087;50.226;8.682;2023-01-13T13:43:28;3.07;;;1.70;;
2161;SDS011;1087;50.226;8.682;2023-01-13T13:46:22;3.97;;;1.90;;
2161;SDS011;1087;50.226;8.682;2023-01-13T13:49:11;3.73;;;1.83;;
2161;SDS011;1087;50.226;8.682;2023-01-13T13:51:43;3.83;;;1.30;;
2161;SDS011;1087;50.226;8.682;2023-01-13T13:54:34;4.97;;;1.73;;
2161;SDS011;1087;50.226;8.682;2023-01-13T13:57:03;5.27;;;2.17;;
2161;SDS011;1087;50.226;8.682;2023-01-13T13:59:29;4.13;;;1.47;;
2161;SDS011;1087;50.226;8.682;2023-01-13T14:01:55;5.77;;;1.80;;
2161;SDS011;1087;50.226;8.682;2023-01-13T14:04:31;1.80;;;1.10;;
2161;SDS011;1087;50.226;8.682;2023-01-13T14:07:17;4.47;;;1.43;;
2161;SDS011;1087;50.226;8.682;2023-01-13T14:09:54;4.07;;;2.20;;
2161;SDS011;1087;50.226;8.682;2023-01-13T14:12:21;3.00;;;1.77;;
2161;SDS011;1087;50.226;8.682;2023-01-13T14:14:48;3.27;;;1.33;;
2161;SDS011;1087;50.226;8.682;2023-01-13T14:17:20;3.33;;;1.37;;
2161;SDS011;1087;50.226;8.682;2023-01-13T14:20:04;4.70;;;1.90;;
2161;SDS011;1087;50.226;8.682;2023-01-13T14:22:34;6.50;;;1.67;;
2161;SDS011;1087;50.226;8.682;2023-01-13T14:25:00;3.67;;;1.50;;
2161;SDS011;1087;50.226;8.682;2023-01-13T14:27:27;4.50;;;1.27;;
2161;SDS011;1087;50.226;8.682;2023-01-13T14:29:54;3.53;;;1.40;;
2161;SDS011;1087;50.226;8.682;2023-01-13T14:32:22;3.20;;;1.37;;
2161;SDS011;1087;50.226;8.682;2023-01-13T14:34:56;3.63;;;1.77;;
2161;SDS011;1087;50.226;8.682;2023-01-13T14:37:34;4.50;;;1.33;;
2161;SDS011;1087;50.226;8.682;2023-01-13T14:40:04;2.93;;;1.73;;
2161;SDS011;1087;50.226;8.682;2023-01-13T14:42:30;3.30;;;1.20;;
2161;SDS011;1087;50.226;8.682;2023-01-13T14:44:59;3.23;;;1.07;;
2161;SDS011;1087;50.226;8.682;2023-01-13T14:47:27;5.77;;;1.67;;
2161;SDS011;1087;50.226;8.682;2023-01-13T14:50:38;3.03;;;0.90;;
2161;SDS011;1087;50.226;8.682;2023-01-13T14:52:49;6.20;;;1.53;;
2161;SDS011;1087;50.226;8.682;2023-01-13T14:57:50;4.87;;;2.70;;
2161;SDS011;1087;50.226;8.682;2023-01-13T15:05:27;4.03;;;1.70;;
2161;SDS011;1087;50.226;8.682;2023-01-13T15:08:04;4.10;;;1.47;;
2161;SDS011;1087;50.226;8.682;2023-01-13T15:10:36;4.20;;;1.87;;
2161;SDS011;1087;50.226;8.682;2023-01-13T15:13:22;5.83;;;2.67;;
2161;SDS011;1087;50.226;8.682;2023-01-13T15:15:57;2.70;;;1.30;;
2161;SDS011;1087;50.226;8.682;2023-01-13T15:18:24;6.33;;;1.47;;
2161;SDS011;1087;50.226;8.682;2023-01-13T15:20:50;5.13;;;1.40;;
2161;SDS011;1087;50.226;8.682;2023-01-13T15:23:16;4.90;;;1.60;;
2161;SDS011;1087;50.226;8.682;2023-01-13T15:25:43;5.57;;;2.10;;
2161;SDS011;1087;50.226;8.682;2023-01-13T15:28:13;6.43;;;2.10;;
2161;SDS011;1087;50.226;8.682;2023-01-13T15:30:40;6.37;;;1.93;;
2161;SDS011;1087;50.226;8.682;2023-01-13T15:33:07;3.90;;;1.63;;
2161;SDS011;1087;50.226;8.682;2023-01-13T15:35:35;5.03;;;2.20;;
2161;SDS011;1087;50.226;8.682;2023-01-13T15:38:05;7.87;;;3.50;;
2161;SDS011;1087;50.226;8.682;2023-01-13T15:40:37;6.27;;;2.97;;
2161;SDS011;1087;50.226;8.682;2023-01-13T15:43:03;5.50;;;1.63;;
2161;SDS011;1087;50.226;8.682;2023-01-13T15:45:48;5.37;;;4.10;;
2161;SDS011;1087;50.226;8.682;2023-01-13T15:48:32;7.90;;;2.43;;
2161;SDS011;1087;50.226;8.682;2023-01-13T15:50:58;4.60;;;1.40;;
2161;SDS011;1087;50.226;8.682;2023-01-13T15:53:24;4.70;;;2.27;;
2161;SDS011;1087;50.226;8.682;2023-01-13T15:55:51;5.17;;;1.63;;
2161;SDS011;1087;50.226;8.682;2023-01-13T15:58:23;6.13;;;1.80;;
2161;SDS011;1087;50.226;8.682;2023-01-13T16:00:50;4.33;;;1.77;;
2161;SDS011;1087;50.226;8.682;2023-01-13T16:03:15;3.23;;;1.57;;
2161;SDS011;1087;50.226;8.682;2023-01-13T16:05:42;4.63;;;1.60;;
2161;SDS011;1087;50.226;8.682;2023-01-13T16:08:18;4.90;;;1.60;;
2161;SDS011;1087;50.226;8.682;2023-01-13T16:10:45;4.80;;;1.50;;
2161;SDS011;1087;50.226;8.682;2023-01-13T16:13:12;3.53;;;1.80;;
2161;SDS011;1087;50.226;8.682;2023-01-13T16:15:43;3.80;;;2.07;;
2161;SDS011;1087;50.226;8.682;2023-01-13T16:18:14;3.13;;;1.70;;
2161;SDS011;1087;50.226;8.682;2023-01-13T16:20:42;3.93;;;2.10;;
2161;SDS011;1087;50.226;8.682;2023-01-13T16:23:08;5.17;;;3.10;;
2161;SDS011;1087;50.226;8.682;2023-01-13T16:25:34;3.60;;;1.70;;
2161;SDS011;1087;50.226;8.682;2023-01-13T16:28:00;6.63;;;1.90;;
2161;SDS011;1087;50.226;8.682;2023-01-13T16:30:27;6.50;;;2.30;;
2161;SDS011;1087;50.226;8.682;2023-01-13T16:32:54;6.57;;;3.90;;
2161;SDS011;1087;50.226;8.682;2023-01-13T16:35:20;3.40;;;1.83;;
2161;SDS011;1087;50.226;8.682;2023-01-13T16:37:46;5.03;;;2.20;;
2161;SDS011;1087;50.226;8.682;2023-01-13T16:42:55;3.60;;;1.70;;
2161;SDS011;1087;50.226;8.682;2023-01-13T16:45:21;2.90;;;1.70;;
2161;SDS011;1087;50.226;8.682;2023-01-13T16:47:47;3.83;;;1.60;;
2161;SDS011;1087;50.226;8.682;2023-01-13T16:50:20;4.33;;;2.07;;
2161;SDS011;1087;50.226;8.682;2023-01-13T16:52:59;7.13;;;1.90;;
2161;SDS011;1087;50.226;8.682;2023-01-13T16:55:25;10.23;;;2.00;;
2161;SDS011;1087;50.226;8.682;2023-01-13T16:57:51;3.63;;;1.70;;
2161;SDS011;1087;50.226;8.682;2023-01-13T17:00:17;4.13;;;1.40;;
2161;SDS011;1087;50.226;8.682;2023-01-13T17:02:43;6.27;;;1.83;;
2161;SDS011;1087;50.226;8.682;2023-01-13T17:05:09;4.60;;;2.00;;
2161;SDS011;1087;50.226;8.682;2023-01-13T17:07:36;6.33;;;2.00;;
2161;SDS011;1087;50.226;8.682;2023-01-13T17:10:02;2.03;;;1.37;;
2161;SDS011;1087;50.226;8.682;2023-01-13T17:12:28;3.80;;;1.90;;
2161;SDS011;1087;50.226;8.682;2023-01-13T17:14:53;4.83;;;2.00;;
2161;SDS011;1087;50.226;8.682;2023-01-13T17:17:20;2.83;;;1.70;;
2161;SDS011;1087;50.226;8.682;2023-01-13T17:19:47;6.97;;;2.50;;
2161;SDS011;1087;50.226;8.682;2023-01-13T17:22:13;5.87;;;2.00;;
2161;SDS011;1087;50.226;8.682;2023-01-13T17:24:38;2.73;;;1.57;;